sensor_id;sensor_type;location;lat;lon;timestamp;P1;durP1;ratioP1;P2;durP2;ratioP2
4517;SDS011;2271;49.464;11.070;2022-11-15T00:00:24;7.80;;;5.17;;
4517;SDS011;2271;49.464;11.070;2022-11-15T00:02:52;6.33;;;4.40;;
4517;SDS011;2271;49.464;11.070;2022-11-15T00:05:17;6.90;;;4.47;;
4517;SDS011;2271;49.464;11.070;2022-11-15T00:07:43;6.40;;;4.70;;
4517;SDS011;2271;49.464;11.070;2022-11-15T00:10:09;7.80;;;4.80;;
4517;SDS011;2271;49.464;11.070;2022-11-15T00:12:34;5.43;;;4.60;;
4517;SDS011;2271;49.464;11.070;2022-11-15T00:15:00;5.17;;;4.30;;
4517;SDS011;2271;49.464;11.070;2022-11-15T00:17:26;6.00;;;4.60;;
4517;SDS011;2271;49.464;11.070;2022-11-15T00:19:51;5.47;;;4.57;;
4517;SDS011;2271;49.464;11.070;2022-11-15T00:22:17;8.10;;;5.10;;
4517;SDS011;2271;49.464;11.070;2022-11-15T00:24:42;7.10;;;4.80;;
4517;SDS011;2271;49.464;11.070;2022-11-15T00:27:08;5.23;;;4.67;;
4517;SDS011;2271;49.464;11.070;2022-11-15T00:29:34;7.37;;;5.50;;
4517;SDS011;2271;49.464;11.070;2022-11-15T00:31:59;5.63;;;4.60;;
4517;SDS011;2271;49.464;11.070;2022-11-15T00:34:25;8.07;;;5.23;;
4517;SDS011;2271;49.464;11.070;2022-11-15T00:36:50;6.13;;;4.67;;
4517;SDS011;2271;49.464;11.070;2022-11-15T00:39:16;8.50;;;5.10;;
4517;SDS011;2271;49.464;11.070;2022-11-15T00:41:42;7.10;;;4.77;;
4517;SDS011;2271;49.464;11.070;2022-11-15T00:44:07;6.33;;;4.90;;
4517;SDS011;2271;49.464;11.070;2022-11-15T00:46:33;7.33;;;5.17;;
4517;SDS011;2271;49.464;11.070;2022-11-15T00:48:59;6.60;;;4.93;;
4517;SDS011;2271;49.464;11.070;2022-11-15T00:51:24;4.70;;;3.87;;
4517;SDS011;2271;49.464;11.070;2022-11-15T00:53:50;4.87;;;4.30;;
4517;SDS011;2271;49.464;11.070;2022-11-15T00:56:15;6.07;;;4.73;;
4517;SDS011;2271;49.464;11.070;2022-11-15T00:58:41;7.80;;;5.07;;
4517;SDS011;2271;49.464;11.070;2022-11-15T01:01:11;7.90;;;4.53;;
4517;SDS011;2271;49.464;11.070;2022-11-15T01:03:38;7.07;;;4.27;;
4517;SDS011;2271;49.464;11.070;2022-11-15T01:06:05;7.77;;;4.97;;
4517;SDS011;2271;49.464;11.070;2022-11-15T01:08:32;8.67;;;5.10;;
4517;SDS011;2271;49.464;11.070;2022-11-15T01:11:06;7.70;;;4.97;;
4517;SDS011;2271;49.464;11.070;2022-11-15T01:13:34;5.33;;;4.43;;
4517;SDS011;2271;49.464;11.070;2022-11-15T01:16:21;8.77;;;5.87;;
4517;SDS011;2271;49.464;11.070;2022-11-15T01:18:46;6.37;;;5.23;;
4517;SDS011;2271;49.464;11.070;2022-11-15T01:21:13;5.87;;;4.40;;
4517;SDS011;2271;49.464;11.070;2022-11-15T01:23:41;8.23;;;4.93;;
4517;SDS011;2271;49.464;11.070;2022-11-15T01:26:07;5.77;;;4.70;;
4517;SDS011;2271;49.464;11.070;2022-11-15T01:28:36;6.23;;;4.83;;
4517;SDS011;2271;49.464;11.070;2022-11-15T01:31:04;5.20;;;4.60;;
4517;SDS011;2271;49.464;11.070;2022-11-15T01:33:34;7.80;;;5.00;;
4517;SDS011;2271;49.464;11.070;2022-11-15T01:36:08;10.20;;;5.27;;
4517;SDS011;2271;49.464;11.070;2022-11-15T01:38:37;6.60;;;5.27;;
4517;SDS011;2271;49.464;11.070;2022-11-15T01:41:03;7.57;;;4.93;;
4517;SDS011;2271;49.464;11.070;2022-11-15T01:43:32;10.13;;;5.07;;
4517;SDS011;2271;49.464;11.070;2022-11-15T01:46:09;6.40;;;5.17;;
4517;SDS011;2271;49.464;11.070;2022-11-15T01:48:46;6.27;;;5.00;;
4517;SDS011;2271;49.464;11.070;2022-11-15T01:51:14;6.70;;;4.83;;
4517;SDS011;2271;49.464;11.070;2022-11-15T01:53:43;6.97;;;5.00;;
4517;SDS011;2271;49.464;11.070;2022-11-15T01:56:13;5.57;;;4.83;;
4517;SDS011;2271;49.464;11.070;2022-11-15T01:58:45;6.27;;;4.87;;
4517;SDS011;2271;49.464;11.070;2022-11-15T02:01:12;6.30;;;4.63;;
4517;SDS011;2271;49.464;11.070;2022-11-15T02:03:42;6.83;;;4.40;;
4517;SDS011;2271;49.464;11.070;2022-11-15T02:06:16;5.93;;;5.33;;
4517;SDS011;2271;49.464;11.070;2022-11-15T02:08:43;5.17;;;4.17;;
4517;SDS011;2271;49.464;11.070;2022-11-15T02:11:11;7.70;;;5.27;;
4517;SDS011;2271;49.464;11.070;2022-11-15T02:13:37;9.77;;;5.00;;
4517;SDS011;2271;49.464;11.070;2022-11-15T02:16:17;8.27;;;4.77;;
4517;SDS011;2271;49.464;11.070;2022-11-15T02:19:02;6.53;;;4.97;;
4517;SDS011;2271;49.464;11.070;2022-11-15T02:30:47;8.00;;;5.17;;
4517;SDS011;2271;49.464;11.070;2022-11-15T02:36:00;5.63;;;4.80;;
4517;SDS011;2271;49.464;11.070;2022-11-15T02:41:02;5.67;;;4.47;;
4517;SDS011;2271;49.464;11.070;2022-11-15T02:46:31;7.73;;;5.43;;
4517;SDS011;2271;49.464;11.070;2022-11-15T02:49:33;6.27;;;4.73;;
4517;SDS011;2271;49.464;11.070;2022-11-15T02:52:02;8.13;;;5.33;;
4517;SDS011;2271;49.464;11.070;2022-11-15T02:54:29;6.27;;;5.00;;
4517;SDS011;2271;49.464;11.070;2022-11-15T02:57:00;5.77;;;3.97;;
4517;SDS011;2271;49.464;11.070;2022-11-15T03:04:55;6.83;;;4.87;;
4517;SDS011;2271;49.464;11.070;2022-11-15T03:07:30;7.97;;;4.53;;
4517;SDS011;2271;49.464;11.070;2022-11-15T03:10:05;6.80;;;5.20;;
4517;SDS011;2271;49.464;11.070;2022-11-15T03:12:36;6.90;;;4.97;;
4517;SDS011;2271;49.464;11.070;2022-11-15T03:15:32;7.43;;;4.43;;
4517;SDS011;2271;49.464;11.070;2022-11-15T03:18:03;7.00;;;4.50;;
4517;SDS011;2271;49.464;11.070;2022-11-15T03:20:32;11.10;;;5.23;;
4517;SDS011;2271;49.464;11.070;2022-11-15T03:23:04;5.53;;;4.43;;
4517;SDS011;2271;49.464;11.070;2022-11-15T03:25:33;7.07;;;5.10;;
4517;SDS011;2271;49.464;11.070;2022-11-15T03:28:03;7.63;;;4.87;;
4517;SDS011;2271;49.464;11.070;2022-11-15T03:30:30;6.60;;;4.60;;
4517;SDS011;2271;49.464;11.070;2022-11-15T03:32:59;6.70;;;5.07;;
4517;SDS011;2271;49.464;11.070;2022-11-15T03:35:29;5.87;;;4.80;;
4517;SDS011;2271;49.464;11.070;2022-11-15T03:38:00;8.33;;;4.47;;
4517;SDS011;2271;49.464;11.070;2022-11-15T03:41:01;5.03;;;4.17;;
4517;SDS011;2271;49.464;11.070;2022-11-15T03:46:32;7.10;;;4.60;;
4517;SDS011;2271;49.464;11.070;2022-11-15T03:49:20;5.87;;;4.87;;
4517;SDS011;2271;49.464;11.070;2022-11-15T03:51:56;4.87;;;3.70;;
4517;SDS011;2271;49.464;11.070;2022-11-15T03:54:22;8.10;;;3.93;;
4517;SDS011;2271;49.464;11.070;2022-11-15T03:56:48;5.57;;;3.63;;
4517;SDS011;2271;49.464;11.070;2022-11-15T03:59:14;5.33;;;4.03;;
4517;SDS011;2271;49.464;11.070;2022-11-15T04:01:39;4.30;;;3.77;;
4517;SDS011;2271;49.464;11.070;2022-11-15T04:04:05;6.47;;;4.60;;
4517;SDS011;2271;49.464;11.070;2022-11-15T04:06:30;6.57;;;4.40;;
4517;SDS011;2271;49.464;11.070;2022-11-15T04:08:56;5.27;;;4.10;;
4517;SDS011;2271;49.464;11.070;2022-11-15T04:11:22;4.07;;;3.40;;
4517;SDS011;2271;49.464;11.070;2022-11-15T04:13:47;4.40;;;3.50;;
4517;SDS011;2271;49.464;11.070;2022-11-15T04:16:13;6.70;;;4.60;;
4517;SDS011;2271;49.464;11.070;2022-11-15T04:18:38;5.67;;;4.53;;
4517;SDS011;2271;49.464;11.070;2022-11-15T04:21:04;4.53;;;3.23;;
4517;SDS011;2271;49.464;11.070;2022-11-15T04:23:48;4.30;;;3.63;;
4517;SDS011;2271;49.464;11.070;2022-11-15T04:26:20;4.40;;;3.87;;
4517;SDS011;2271;49.464;11.070;2022-11-15T04:28:47;4.37;;;3.77;;
4517;SDS011;2271;49.464;11.070;2022-11-15T04:31:31;3.87;;;3.57;;
4517;SDS011;2271;49.464;11.070;2022-11-15T04:33:57;4.30;;;3.47;;
4517;SDS011;2271;49.464;11.070;2022-11-15T04:36:23;9.10;;;4.50;;
4517;SDS011;2271;49.464;11.070;2022-11-15T04:39:07;4.27;;;3.53;;
4517;SDS011;2271;49.464;11.070;2022-11-15T04:41:33;5.63;;;3.93;;
4517;SDS011;2271;49.464;11.070;2022-11-15T04:43:58;5.60;;;3.60;;
4517;SDS011;2271;49.464;11.070;2022-11-15T04:46:24;8.20;;;4.20;;
4517;SDS011;2271;49.464;11.070;2022-11-15T04:48:51;5.50;;;3.80;;
4517;SDS011;2271;49.464;11.070;2022-11-15T04:51:17;5.97;;;4.43;;
4517;SDS011;2271;49.464;11.070;2022-11-15T04:53:43;4.70;;;3.63;;
4517;SDS011;2271;49.464;11.070;2022-11-15T04:56:09;6.00;;;4.10;;
4517;SDS011;2271;49.464;11.070;2022-11-15T04:58:34;6.50;;;4.27;;
4517;SDS011;2271;49.464;11.070;2022-11-15T05:01:13;4.97;;;3.37;;
4517;SDS011;2271;49.464;11.070;2022-11-15T05:03:39;5.10;;;3.67;;
4517;SDS011;2271;49.464;11.070;2022-11-15T05:06:24;5.50;;;3.50;;
4517;SDS011;2271;49.464;11.070;2022-11-15T05:08:50;4.97;;;3.80;;
4517;SDS011;2271;49.464;11.070;2022-11-15T05:11:16;4.20;;;3.63;;
4517;SDS011;2271;49.464;11.070;2022-11-15T05:13:41;6.37;;;3.83;;
4517;SDS011;2271;49.464;11.070;2022-11-15T05:16:07;10.27;;;3.83;;
4517;SDS011;2271;49.464;11.070;2022-11-15T05:18:33;5.57;;;3.80;;
4517;SDS011;2271;49.464;11.070;2022-11-15T05:21:05;4.70;;;3.70;;
4517;SDS011;2271;49.464;11.070;2022-11-15T05:23:33;4.07;;;3.57;;
4517;SDS011;2271;49.464;11.070;2022-11-15T05:25:59;5.43;;;4.23;;
4517;SDS011;2271;49.464;11.070;2022-11-15T05:28:28;6.50;;;4.53;;
4517;SDS011;2271;49.464;11.070;2022-11-15T05:31:00;6.37;;;4.37;;
4517;SDS011;2271;49.464;11.070;2022-11-15T05:33:26;5.93;;;3.70;;
4517;SDS011;2271;49.464;11.070;2022-11-15T05:35:54;6.57;;;4.30;;
4517;SDS011;2271;49.464;11.070;2022-11-15T05:38:29;5.03;;;4.43;;
4517;SDS011;2271;49.464;11.070;2022-11-15T05:40:55;7.70;;;4.30;;
4517;SDS011;2271;49.464;11.070;2022-11-15T05:43:21;6.47;;;4.40;;
4517;SDS011;2271;49.464;11.070;2022-11-15T05:45:47;10.57;;;5.10;;
4517;SDS011;2271;49.464;11.070;2022-11-15T05:48:13;7.57;;;4.37;;
4517;SDS011;2271;49.464;11.070;2022-11-15T05:50:40;5.90;;;4.30;;
4517;SDS011;2271;49.464;11.070;2022-11-15T05:53:09;4.63;;;3.67;;
4517;SDS011;2271;49.464;11.070;2022-11-15T05:55:37;9.80;;;4.23;;
4517;SDS011;2271;49.464;11.070;2022-11-15T05:58:04;4.93;;;3.90;;
4517;SDS011;2271;49.464;11.070;2022-11-15T06:00:30;6.30;;;4.17;;
4517;SDS011;2271;49.464;11.070;2022-11-15T06:02:56;6.37;;;4.20;;
4517;SDS011;2271;49.464;11.070;2022-11-15T06:05:21;6.83;;;3.77;;
4517;SDS011;2271;49.464;11.070;2022-11-15T06:07:47;4.97;;;3.93;;
4517;SDS011;2271;49.464;11.070;2022-11-15T06:10:13;5.50;;;3.83;;
4517;SDS011;2271;49.464;11.070;2022-11-15T06:12:38;7.60;;;3.93;;
4517;SDS011;2271;49.464;11.070;2022-11-15T06:15:04;7.40;;;4.40;;
4517;SDS011;2271;49.464;11.070;2022-11-15T06:17:30;6.23;;;4.00;;
4517;SDS011;2271;49.464;11.070;2022-11-15T06:19:55;5.43;;;3.87;;
4517;SDS011;2271;49.464;11.070;2022-11-15T06:22:21;6.07;;;3.83;;
4517;SDS011;2271;49.464;11.070;2022-11-15T06:24:46;8.67;;;3.37;;
4517;SDS011;2271;49.464;11.070;2022-11-15T06:27:12;5.07;;;3.73;;
4517;SDS011;2271;49.464;11.070;2022-11-15T06:29:38;7.17;;;3.73;;
4517;SDS011;2271;49.464;11.070;2022-11-15T06:32:04;10.20;;;3.50;;
4517;SDS011;2271;49.464;11.070;2022-11-15T06:34:29;8.73;;;3.80;;
4517;SDS011;2271;49.464;11.070;2022-11-15T06:36:55;8.73;;;4.00;;
4517;SDS011;2271;49.464;11.070;2022-11-15T06:39:21;9.83;;;4.13;;
4517;SDS011;2271;49.464;11.070;2022-11-15T06:41:46;7.40;;;4.80;;
4517;SDS011;2271;49.464;11.070;2022-11-15T06:44:12;5.50;;;3.37;;
4517;SDS011;2271;49.464;11.070;2022-11-15T06:46:37;4.87;;;3.70;;
4517;SDS011;2271;49.464;11.070;2022-11-15T06:49:03;6.27;;;3.70;;
4517;SDS011;2271;49.464;11.070;2022-11-15T06:51:29;4.33;;;3.53;;
4517;SDS011;2271;49.464;11.070;2022-11-15T06:53:54;6.93;;;4.17;;
4517;SDS011;2271;49.464;11.070;2022-11-15T06:56:20;7.43;;;4.20;;
4517;SDS011;2271;49.464;11.070;2022-11-15T06:58:45;4.60;;;3.67;;
4517;SDS011;2271;49.464;11.070;2022-11-15T07:01:11;3.83;;;3.40;;
4517;SDS011;2271;49.464;11.070;2022-11-15T07:03:38;7.57;;;3.87;;
4517;SDS011;2271;49.464;11.070;2022-11-15T07:06:06;6.83;;;4.10;;
4517;SDS011;2271;49.464;11.070;2022-11-15T07:08:32;5.90;;;4.80;;
4517;SDS011;2271;49.464;11.070;2022-11-15T07:10:59;4.70;;;3.40;;
4517;SDS011;2271;49.464;11.070;2022-11-15T07:13:27;9.23;;;4.57;;
4517;SDS011;2271;49.464;11.070;2022-11-15T07:15:54;7.90;;;4.23;;
4517;SDS011;2271;49.464;11.070;2022-11-15T07:18:19;8.27;;;4.17;;
4517;SDS011;2271;49.464;11.070;2022-11-15T07:20:45;5.67;;;4.30;;
4517;SDS011;2271;49.464;11.070;2022-11-15T07:23:11;7.87;;;4.93;;
4517;SDS011;2271;49.464;11.070;2022-11-15T07:25:37;7.10;;;4.83;;
4517;SDS011;2271;49.464;11.070;2022-11-15T07:28:02;8.23;;;4.77;;
4517;SDS011;2271;49.464;11.070;2022-11-15T07:30:28;5.83;;;4.10;;
4517;SDS011;2271;49.464;11.070;2022-11-15T07:32:55;8.33;;;3.73;;
4517;SDS011;2271;49.464;11.070;2022-11-15T07:35:21;6.93;;;4.10;;
4517;SDS011;2271;49.464;11.070;2022-11-15T07:37:54;5.03;;;3.97;;
4517;SDS011;2271;49.464;11.070;2022-11-15T07:40:20;9.13;;;3.87;;
4517;SDS011;2271;49.464;11.070;2022-11-15T07:42:46;5.60;;;3.60;;
4517;SDS011;2271;49.464;11.070;2022-11-15T07:45:17;7.80;;;4.37;;
4517;SDS011;2271;49.464;11.070;2022-11-15T07:47:46;5.07;;;3.50;;
4517;SDS011;2271;49.464;11.070;2022-11-15T07:50:13;5.33;;;4.13;;
4517;SDS011;2271;49.464;11.070;2022-11-15T07:52:39;6.30;;;3.67;;
4517;SDS011;2271;49.464;11.070;2022-11-15T07:55:04;6.40;;;4.53;;
4517;SDS011;2271;49.464;11.070;2022-11-15T07:57:30;7.20;;;3.87;;
4517;SDS011;2271;49.464;11.070;2022-11-15T07:59:56;8.10;;;4.13;;
4517;SDS011;2271;49.464;11.070;2022-11-15T08:02:22;5.80;;;4.23;;
4517;SDS011;2271;49.464;11.070;2022-11-15T08:04:47;6.00;;;3.80;;
4517;SDS011;2271;49.464;11.070;2022-11-15T08:07:13;6.50;;;4.67;;
4517;SDS011;2271;49.464;11.070;2022-11-15T08:09:38;4.87;;;3.67;;
4517;SDS011;2271;49.464;11.070;2022-11-15T08:12:04;5.13;;;3.37;;
4517;SDS011;2271;49.464;11.070;2022-11-15T08:14:30;6.67;;;4.07;;
4517;SDS011;2271;49.464;11.070;2022-11-15T08:16:56;7.07;;;3.50;;
4517;SDS011;2271;49.464;11.070;2022-11-15T08:19:22;5.80;;;3.47;;
4517;SDS011;2271;49.464;11.070;2022-11-15T08:21:47;5.57;;;3.90;;
4517;SDS011;2271;49.464;11.070;2022-11-15T08:24:13;6.47;;;4.00;;
4517;SDS011;2271;49.464;11.070;2022-11-15T08:26:39;6.13;;;3.63;;
4517;SDS011;2271;49.464;11.070;2022-11-15T08:29:05;8.03;;;3.80;;
4517;SDS011;2271;49.464;11.070;2022-11-15T08:31:33;5.13;;;3.50;;
4517;SDS011;2271;49.464;11.070;2022-11-15T08:34:01;5.60;;;3.60;;
4517;SDS011;2271;49.464;11.070;2022-11-15T08:36:27;6.50;;;3.83;;
4517;SDS011;2271;49.464;11.070;2022-11-15T08:38:53;7.33;;;4.10;;
4517;SDS011;2271;49.464;11.070;2022-11-15T08:43:55;4.23;;;3.10;;
4517;SDS011;2271;49.464;11.070;2022-11-15T08:46:21;4.27;;;3.60;;
4517;SDS011;2271;49.464;11.070;2022-11-15T08:48:47;6.47;;;2.87;;
4517;SDS011;2271;49.464;11.070;2022-11-15T08:51:12;4.20;;;3.37;;
4517;SDS011;2271;49.464;11.070;2022-11-15T08:53:38;4.70;;;3.13;;
4517;SDS011;2271;49.464;11.070;2022-11-15T08:56:06;6.23;;;3.13;;
4517;SDS011;2271;49.464;11.070;2022-11-15T08:58:34;5.20;;;3.43;;
4517;SDS011;2271;49.464;11.070;2022-11-15T09:01:00;4.10;;;3.23;;
4517;SDS011;2271;49.464;11.070;2022-11-15T09:03:25;6.57;;;3.27;;
4517;SDS011;2271;49.464;11.070;2022-11-15T09:05:55;4.73;;;3.57;;
4517;SDS011;2271;49.464;11.070;2022-11-15T09:08:21;4.70;;;3.20;;
4517;SDS011;2271;49.464;11.070;2022-11-15T09:10:46;7.83;;;3.20;;
4517;SDS011;2271;49.464;11.070;2022-11-15T09:13:12;6.37;;;3.30;;
4517;SDS011;2271;49.464;11.070;2022-11-15T09:15:38;3.87;;;3.23;;
4517;SDS011;2271;49.464;11.070;2022-11-15T09:18:04;4.87;;;3.30;;
4517;SDS011;2271;49.464;11.070;2022-11-15T09:20:29;6.53;;;3.40;;
4517;SDS011;2271;49.464;11.070;2022-11-15T09:22:58;4.63;;;3.00;;
4517;SDS011;2271;49.464;11.070;2022-11-15T09:25:25;8.03;;;3.30;;
4517;SDS011;2271;49.464;11.070;2022-11-15T09:27:51;6.87;;;4.00;;
4517;SDS011;2271;49.464;11.070;2022-11-15T09:30:17;5.63;;;3.57;;
4517;SDS011;2271;49.464;11.070;2022-11-15T09:32:43;4.37;;;3.20;;
4517;SDS011;2271;49.464;11.070;2022-11-15T09:35:08;6.73;;;3.33;;
4517;SDS011;2271;49.464;11.070;2022-11-15T09:37:34;6.93;;;3.33;;
4517;SDS011;2271;49.464;11.070;2022-11-15T09:40:00;4.13;;;3.00;;
4517;SDS011;2271;49.464;11.070;2022-11-15T09:42:47;4.70;;;3.30;;
4517;SDS011;2271;49.464;11.070;2022-11-15T09:48:20;4.83;;;3.43;;
4517;SDS011;2271;49.464;11.070;2022-11-15T09:51:08;4.17;;;3.07;;
4517;SDS011;2271;49.464;11.070;2022-11-15T09:54:02;4.23;;;3.20;;
4517;SDS011;2271;49.464;11.070;2022-11-15T09:56:46;4.93;;;3.33;;
4517;SDS011;2271;49.464;11.070;2022-11-15T10:04:40;7.10;;;3.07;;
4517;SDS011;2271;49.464;11.070;2022-11-15T10:07:17;6.27;;;2.93;;
4517;SDS011;2271;49.464;11.070;2022-11-15T10:09:51;2.73;;;2.37;;
4517;SDS011;2271;49.464;11.070;2022-11-15T10:12:22;4.73;;;2.80;;
4517;SDS011;2271;49.464;11.070;2022-11-15T10:14:48;3.37;;;2.70;;
4517;SDS011;2271;49.464;11.070;2022-11-15T10:22:49;6.27;;;3.13;;
4517;SDS011;2271;49.464;11.070;2022-11-15T10:27:44;4.43;;;2.63;;
4517;SDS011;2271;49.464;11.070;2022-11-15T10:30:16;3.27;;;2.73;;
4517;SDS011;2271;49.464;11.070;2022-11-15T10:32:44;4.53;;;2.60;;
4517;SDS011;2271;49.464;11.070;2022-11-15T10:35:18;6.77;;;3.07;;
4517;SDS011;2271;49.464;11.070;2022-11-15T10:37:49;4.30;;;2.83;;
4517;SDS011;2271;49.464;11.070;2022-11-15T10:40:22;4.73;;;3.13;;
4517;SDS011;2271;49.464;11.070;2022-11-15T10:43:03;3.30;;;2.50;;
4517;SDS011;2271;49.464;11.070;2022-11-15T10:45:30;6.37;;;2.60;;
4517;SDS011;2271;49.464;11.070;2022-11-15T10:50:38;4.57;;;2.70;;
4517;SDS011;2271;49.464;11.070;2022-11-15T10:53:12;6.23;;;2.87;;
4517;SDS011;2271;49.464;11.070;2022-11-15T10:55:48;3.73;;;2.20;;
4517;SDS011;2271;49.464;11.070;2022-11-15T10:58:30;2.47;;;1.98;;
4517;SDS011;2271;49.464;11.070;2022-11-15T11:01:23;2.20;;;1.87;;
4517;SDS011;2271;49.464;11.070;2022-11-15T11:04:07;2.72;;;1.67;;
4517;SDS011;2271;49.464;11.070;2022-11-15T11:11:57;3.03;;;1.75;;
4517;SDS011;2271;49.464;11.070;2022-11-15T11:14:24;8.57;;;1.98;;
4517;SDS011;2271;49.464;11.070;2022-11-15T11:27:39;5.03;;;1.60;;
4517;SDS011;2271;49.464;11.070;2022-11-15T11:33:31;4.28;;;2.15;;
4517;SDS011;2271;49.464;11.070;2022-11-15T11:39:21;1.63;;;1.52;;
4517;SDS011;2271;49.464;11.070;2022-11-15T11:45:25;3.60;;;1.90;;
4517;SDS011;2271;49.464;11.070;2022-11-15T11:50:51;4.63;;;2.05;;
4517;SDS011;2271;49.464;11.070;2022-11-15T11:53:26;2.05;;;1.90;;
4517;SDS011;2271;49.464;11.070;2022-11-15T11:56:04;2.30;;;1.65;;
4517;SDS011;2271;49.464;11.070;2022-11-15T11:58:43;2.65;;;1.88;;
4517;SDS011;2271;49.464;11.070;2022-11-15T12:06:32;2.00;;;1.80;;
4517;SDS011;2271;49.464;11.070;2022-11-15T12:09:21;2.95;;;2.20;;
4517;SDS011;2271;49.464;11.070;2022-11-15T12:12:01;3.42;;;1.75;;
4517;SDS011;2271;49.464;11.070;2022-11-15T12:14:56;3.10;;;1.85;;
4517;SDS011;2271;49.464;11.070;2022-11-15T12:17:25;3.13;;;1.90;;
4517;SDS011;2271;49.464;11.070;2022-11-15T12:19:56;5.07;;;1.38;;
4517;SDS011;2271;49.464;11.070;2022-11-15T12:25:14;7.65;;;1.60;;
4517;SDS011;2271;49.464;11.070;2022-11-15T12:28:03;3.15;;;1.60;;
4517;SDS011;2271;49.464;11.070;2022-11-15T12:30:50;3.47;;;1.85;;
4517;SDS011;2271;49.464;11.070;2022-11-15T12:33:42;1.92;;;1.73;;
4517;SDS011;2271;49.464;11.070;2022-11-15T12:36:12;4.00;;;2.08;;
4517;SDS011;2271;49.464;11.070;2022-11-15T12:39:06;3.35;;;1.38;;
4517;SDS011;2271;49.464;11.070;2022-11-15T12:41:37;2.85;;;1.40;;
4517;SDS011;2271;49.464;11.070;2022-11-15T12:44:09;2.17;;;1.58;;
4517;SDS011;2271;49.464;11.070;2022-11-15T13:17:45;4.60;;;2.35;;
4517;SDS011;2271;49.464;11.070;2022-11-15T13:31:03;4.88;;;1.90;;
4517;SDS011;2271;49.464;11.070;2022-11-15T13:33:42;3.75;;;2.00;;
4517;SDS011;2271;49.464;11.070;2022-11-15T13:36:13;3.15;;;2.10;;
4517;SDS011;2271;49.464;11.070;2022-11-15T13:38:39;5.75;;;1.80;;
4517;SDS011;2271;49.464;11.070;2022-11-15T13:41:19;3.45;;;2.35;;
4517;SDS011;2271;49.464;11.070;2022-11-15T13:43:48;3.78;;;2.50;;
4517;SDS011;2271;49.464;11.070;2022-11-15T13:48:43;8.32;;;2.65;;
4517;SDS011;2271;49.464;11.070;2022-11-15T13:53:40;3.30;;;2.45;;
4517;SDS011;2271;49.464;11.070;2022-11-15T13:56:08;5.53;;;3.15;;
4517;SDS011;2271;49.464;11.070;2022-11-15T13:58:36;7.15;;;2.53;;
4517;SDS011;2271;49.464;11.070;2022-11-15T14:01:04;8.93;;;5.53;;
4517;SDS011;2271;49.464;11.070;2022-11-15T14:03:42;7.97;;;3.78;;
4517;SDS011;2271;49.464;11.070;2022-11-15T14:06:15;5.47;;;2.40;;
4517;SDS011;2271;49.464;11.070;2022-11-15T14:08:58;3.22;;;2.20;;
4517;SDS011;2271;49.464;11.070;2022-11-15T14:11:24;4.13;;;2.17;;
4517;SDS011;2271;49.464;11.070;2022-11-15T14:16:32;3.38;;;1.80;;
4517;SDS011;2271;49.464;11.070;2022-11-15T14:19:00;3.63;;;2.25;;
4517;SDS011;2271;49.464;11.070;2022-11-15T14:21:25;6.88;;;2.72;;
4517;SDS011;2271;49.464;11.070;2022-11-15T14:23:51;6.03;;;2.80;;
4517;SDS011;2271;49.464;11.070;2022-11-15T14:26:33;3.38;;;2.40;;
4517;SDS011;2271;49.464;11.070;2022-11-15T14:32:14;6.75;;;2.42;;
4517;SDS011;2271;49.464;11.070;2022-11-15T14:34:43;7.30;;;3.65;;
4517;SDS011;2271;49.464;11.070;2022-11-15T14:37:16;8.57;;;3.75;;
4517;SDS011;2271;49.464;11.070;2022-11-15T14:39:43;5.95;;;3.92;;
4517;SDS011;2271;49.464;11.070;2022-11-15T14:42:09;6.10;;;3.85;;
4517;SDS011;2271;49.464;11.070;2022-11-15T14:44:35;7.78;;;4.68;;
4517;SDS011;2271;49.464;11.070;2022-11-15T14:47:00;7.72;;;3.08;;
4517;SDS011;2271;49.464;11.070;2022-11-15T14:49:26;6.15;;;3.45;;
4517;SDS011;2271;49.464;11.070;2022-11-15T14:51:51;6.55;;;3.30;;
4517;SDS011;2271;49.464;11.070;2022-11-15T14:54:17;8.82;;;4.35;;
4517;SDS011;2271;49.464;11.070;2022-11-15T14:56:43;6.43;;;3.33;;
4517;SDS011;2271;49.464;11.070;2022-11-15T14:59:08;9.55;;;3.20;;
4517;SDS011;2271;49.464;11.070;2022-11-15T15:01:34;17.83;;;6.43;;
4517;SDS011;2271;49.464;11.070;2022-11-15T15:03:59;7.25;;;4.15;;
4517;SDS011;2271;49.464;11.070;2022-11-15T15:06:25;11.45;;;5.28;;
4517;SDS011;2271;49.464;11.070;2022-11-15T15:08:55;16.40;;;4.40;;
4517;SDS011;2271;49.464;11.070;2022-11-15T15:11:28;8.80;;;4.25;;
4517;SDS011;2271;49.464;11.070;2022-11-15T15:13:55;8.10;;;4.13;;
4517;SDS011;2271;49.464;11.070;2022-11-15T15:16:23;8.95;;;3.92;;
4517;SDS011;2271;49.464;11.070;2022-11-15T15:18:50;9.00;;;4.60;;
4517;SDS011;2271;49.464;11.070;2022-11-15T15:23:56;6.68;;;3.88;;
4517;SDS011;2271;49.464;11.070;2022-11-15T15:26:24;10.38;;;4.05;;
4517;SDS011;2271;49.464;11.070;2022-11-15T15:28:50;10.35;;;4.82;;
4517;SDS011;2271;49.464;11.070;2022-11-15T15:31:16;15.55;;;4.78;;
4517;SDS011;2271;49.464;11.070;2022-11-15T15:33:42;9.02;;;4.53;;
4517;SDS011;2271;49.464;11.070;2022-11-15T15:36:11;6.32;;;4.65;;
4517;SDS011;2271;49.464;11.070;2022-11-15T15:38:38;9.60;;;5.40;;
4517;SDS011;2271;49.464;11.070;2022-11-15T15:41:15;7.07;;;4.75;;
4517;SDS011;2271;49.464;11.070;2022-11-15T15:43:41;8.63;;;4.97;;
4517;SDS011;2271;49.464;11.070;2022-11-15T15:46:11;9.23;;;4.53;;
4517;SDS011;2271;49.464;11.070;2022-11-15T15:48:38;10.80;;;4.50;;
4517;SDS011;2271;49.464;11.070;2022-11-15T15:51:04;6.95;;;4.15;;
4517;SDS011;2271;49.464;11.070;2022-11-15T15:53:30;8.93;;;4.43;;
4517;SDS011;2271;49.464;11.070;2022-11-15T15:55:56;8.52;;;5.05;;
4517;SDS011;2271;49.464;11.070;2022-11-15T15:58:22;10.25;;;5.38;;
4517;SDS011;2271;49.464;11.070;2022-11-15T16:00:48;20.55;;;5.93;;
4517;SDS011;2271;49.464;11.070;2022-11-15T16:03:14;14.15;;;6.07;;
4517;SDS011;2271;49.464;11.070;2022-11-15T16:05:39;11.40;;;5.60;;
4517;SDS011;2271;49.464;11.070;2022-11-15T16:08:14;9.35;;;5.43;;
4517;SDS011;2271;49.464;11.070;2022-11-15T16:10:43;8.77;;;5.23;;
4517;SDS011;2271;49.464;11.070;2022-11-15T16:13:09;7.53;;;3.95;;
4517;SDS011;2271;49.464;11.070;2022-11-15T16:15:34;7.57;;;4.45;;
4517;SDS011;2271;49.464;11.070;2022-11-15T16:18:01;7.63;;;4.10;;
4517;SDS011;2271;49.464;11.070;2022-11-15T16:20:34;6.95;;;4.40;;
4517;SDS011;2271;49.464;11.070;2022-11-15T16:23:13;15.75;;;5.18;;
4517;SDS011;2271;49.464;11.070;2022-11-15T16:25:41;11.88;;;5.32;;
4517;SDS011;2271;49.464;11.070;2022-11-15T16:28:14;12.13;;;5.07;;
4517;SDS011;2271;49.464;11.070;2022-11-15T16:30:41;5.50;;;4.10;;
4517;SDS011;2271;49.464;11.070;2022-11-15T16:33:07;6.00;;;3.83;;
4517;SDS011;2271;49.464;11.070;2022-11-15T16:35:33;4.85;;;3.28;;
4517;SDS011;2271;49.464;11.070;2022-11-15T16:37:58;6.75;;;4.10;;
4517;SDS011;2271;49.464;11.070;2022-11-15T16:40:25;5.22;;;3.88;;
4517;SDS011;2271;49.464;11.070;2022-11-15T16:42:56;6.00;;;3.73;;
4517;SDS011;2271;49.464;11.070;2022-11-15T16:45:23;9.80;;;4.28;;
4517;SDS011;2271;49.464;11.070;2022-11-15T16:47:50;5.80;;;3.85;;
4517;SDS011;2271;49.464;11.070;2022-11-15T16:50:18;7.72;;;3.85;;
4517;SDS011;2271;49.464;11.070;2022-11-15T16:52:55;6.87;;;4.07;;
4517;SDS011;2271;49.464;11.070;2022-11-15T16:55:22;7.60;;;4.05;;
4517;SDS011;2271;49.464;11.070;2022-11-15T16:57:53;6.23;;;4.03;;
4517;SDS011;2271;49.464;11.070;2022-11-15T17:00:20;6.20;;;4.37;;
4517;SDS011;2271;49.464;11.070;2022-11-15T17:02:46;11.38;;;4.35;;
4517;SDS011;2271;49.464;11.070;2022-11-15T17:05:13;6.90;;;3.73;;
4517;SDS011;2271;49.464;11.070;2022-11-15T17:07:40;9.37;;;4.70;;
4517;SDS011;2271;49.464;11.070;2022-11-15T17:10:07;7.27;;;4.73;;
4517;SDS011;2271;49.464;11.070;2022-11-15T17:12:35;10.57;;;4.67;;
4517;SDS011;2271;49.464;11.070;2022-11-15T17:15:01;11.03;;;4.30;;
4517;SDS011;2271;49.464;11.070;2022-11-15T17:17:28;7.90;;;5.13;;
4517;SDS011;2271;49.464;11.070;2022-11-15T17:19:54;10.60;;;5.30;;
4517;SDS011;2271;49.464;11.070;2022-11-15T17:22:20;11.57;;;5.78;;
4517;SDS011;2271;49.464;11.070;2022-11-15T17:24:45;15.23;;;6.40;;
4517;SDS011;2271;49.464;11.070;2022-11-15T17:27:11;14.80;;;7.90;;
4517;SDS011;2271;49.464;11.070;2022-11-15T17:29:36;18.15;;;6.35;;
4517;SDS011;2271;49.464;11.070;2022-11-15T17:32:02;12.03;;;6.57;;